Jones Crossroads, South Carolina
Current Conditions -  °F | °C
As of 11:35 AM on Wednesday 28 Jan 2015 (Local Time) from KAIK Reporting Station
Clear Clear  
Wind Chill: 39°   Ceiling: Unl
Heat Index: 43°   Visibility: 10mi
Dew Point: 19°   Wind: 7mph
Humidity: 39%   Direction: 340°NNW
Pressure: 30.3"   Gusts: NA
Location:  33.7495°N, 81.5464°W
Report Text: KAIK 281635Z AUTO 34006KT 10SM CLR 06/M07 A3030 RMK AO2 PNO
Loading
Personal Weather Stations






























Interactive Weather Map New forecast layout! Learn more

10-Day Weather Forecast

Advertisements
Track Severe Weather on mobile